sensor_id;sensor_type;location;lat;lon;timestamp;P1;durP1;ratioP1;P2;durP2;ratioP2
65863;SDS011;52639;51.180;20.460;2022-09-14T00:01:37;50.03;;;25.25;;
65863;SDS011;52639;51.180;20.460;2022-09-14T00:05:43;53.40;;;21.58;;
65863;SDS011;52639;51.180;20.460;2022-09-14T00:09:48;47.45;;;21.25;;
65863;SDS011;52639;51.180;20.460;2022-09-14T00:13:52;56.97;;;23.92;;
65863;SDS011;52639;51.180;20.460;2022-09-14T00:17:56;62.35;;;24.23;;
65863;SDS011;52639;51.180;20.460;2022-09-14T00:21:58;65.75;;;23.40;;
65863;SDS011;52639;51.180;20.460;2022-09-14T00:26:03;64.68;;;24.00;;
65863;SDS011;52639;51.180;20.460;2022-09-14T00:30:07;51.63;;;23.05;;
65863;SDS011;52639;51.180;20.460;2022-09-14T00:34:12;62.50;;;25.10;;
65863;SDS011;52639;51.180;20.460;2022-09-14T00:38:15;61.25;;;23.48;;
65863;SDS011;52639;51.180;20.460;2022-09-14T00:42:19;58.38;;;24.45;;
65863;SDS011;52639;51.180;20.460;2022-09-14T00:46:22;53.80;;;21.67;;
65863;SDS011;52639;51.180;20.460;2022-09-14T00:50:26;58.40;;;22.10;;
65863;SDS011;52639;51.180;20.460;2022-09-14T00:54:28;51.28;;;21.50;;
65863;SDS011;52639;51.180;20.460;2022-09-14T00:58:32;45.78;;;19.75;;
65863;SDS011;52639;51.180;20.460;2022-09-14T01:02:35;36.60;;;18.95;;
65863;SDS011;52639;51.180;20.460;2022-09-14T01:06:40;33.03;;;16.88;;
65863;SDS011;52639;51.180;20.460;2022-09-14T01:10:56;38.85;;;18.95;;
65863;SDS011;52639;51.180;20.460;2022-09-14T01:15:10;41.50;;;19.48;;
65863;SDS011;52639;51.180;20.460;2022-09-14T01:19:22;33.28;;;16.85;;
65863;SDS011;52639;51.180;20.460;2022-09-14T01:23:34;31.17;;;16.48;;
65863;SDS011;52639;51.180;20.460;2022-09-14T01:27:42;25.60;;;14.88;;
65863;SDS011;52639;51.180;20.460;2022-09-14T01:31:47;29.15;;;15.68;;
65863;SDS011;52639;51.180;20.460;2022-09-14T01:35:54;31.75;;;16.25;;
65863;SDS011;52639;51.180;20.460;2022-09-14T01:40:00;29.02;;;16.23;;
65863;SDS011;52639;51.180;20.460;2022-09-14T01:44:08;28.20;;;15.95;;
65863;SDS011;52639;51.180;20.460;2022-09-14T01:48:14;27.33;;;15.73;;
65863;SDS011;52639;51.180;20.460;2022-09-14T01:52:22;27.48;;;15.88;;
65863;SDS011;52639;51.180;20.460;2022-09-14T01:56:31;28.83;;;15.85;;
65863;SDS011;52639;51.180;20.460;2022-09-14T02:00:37;31.98;;;17.13;;
65863;SDS011;52639;51.180;20.460;2022-09-14T02:04:46;35.97;;;17.13;;
65863;SDS011;52639;51.180;20.460;2022-09-14T02:08:53;34.03;;;16.80;;
65863;SDS011;52639;51.180;20.460;2022-09-14T02:12:56;34.40;;;17.52;;
65863;SDS011;52639;51.180;20.460;2022-09-14T02:17:00;38.50;;;19.15;;
65863;SDS011;52639;51.180;20.460;2022-09-14T02:21:05;47.05;;;20.13;;
65863;SDS011;52639;51.180;20.460;2022-09-14T02:25:11;36.40;;;18.58;;
65863;SDS011;52639;51.180;20.460;2022-09-14T02:29:14;37.50;;;18.25;;
65863;SDS011;52639;51.180;20.460;2022-09-14T02:33:19;46.75;;;19.48;;
65863;SDS011;52639;51.180;20.460;2022-09-14T02:37:29;53.10;;;20.95;;
65863;SDS011;52639;51.180;20.460;2022-09-14T02:41:41;62.58;;;21.27;;
65863;SDS011;52639;51.180;20.460;2022-09-14T02:45:52;57.05;;;22.42;;
65863;SDS011;52639;51.180;20.460;2022-09-14T02:50:06;58.55;;;21.60;;
65863;SDS011;52639;51.180;20.460;2022-09-14T02:54:18;57.53;;;22.58;;
65863;SDS011;52639;51.180;20.460;2022-09-14T02:58:23;66.10;;;24.48;;
65863;SDS011;52639;51.180;20.460;2022-09-14T03:02:26;59.25;;;23.60;;
65863;SDS011;52639;51.180;20.460;2022-09-14T03:06:29;59.17;;;23.58;;
65863;SDS011;52639;51.180;20.460;2022-09-14T03:10:32;60.92;;;22.52;;
65863;SDS011;52639;51.180;20.460;2022-09-14T03:14:35;47.08;;;21.05;;
65863;SDS011;52639;51.180;20.460;2022-09-14T03:18:38;50.08;;;21.15;;
65863;SDS011;52639;51.180;20.460;2022-09-14T03:22:42;44.08;;;20.55;;
65863;SDS011;52639;51.180;20.460;2022-09-14T03:26:45;44.65;;;20.13;;
65863;SDS011;52639;51.180;20.460;2022-09-14T03:30:51;42.90;;;19.30;;
65863;SDS011;52639;51.180;20.460;2022-09-14T03:34:54;32.88;;;15.90;;
65863;SDS011;52639;51.180;20.460;2022-09-14T03:38:58;32.28;;;17.80;;
65863;SDS011;52639;51.180;20.460;2022-09-14T03:43:02;30.70;;;16.75;;
65863;SDS011;52639;51.180;20.460;2022-09-14T03:47:04;30.13;;;15.27;;
65863;SDS011;52639;51.180;20.460;2022-09-14T03:51:09;30.83;;;16.48;;
65863;SDS011;52639;51.180;20.460;2022-09-14T03:55:15;34.63;;;15.70;;
65863;SDS011;52639;51.180;20.460;2022-09-14T03:59:19;34.28;;;16.80;;
65863;SDS011;52639;51.180;20.460;2022-09-14T04:03:21;32.47;;;16.75;;
65863;SDS011;52639;51.180;20.460;2022-09-14T04:07:24;38.08;;;18.08;;
65863;SDS011;52639;51.180;20.460;2022-09-14T04:11:28;40.85;;;17.95;;
65863;SDS011;52639;51.180;20.460;2022-09-14T04:15:33;55.30;;;25.40;;
65863;SDS011;52639;51.180;20.460;2022-09-14T04:19:35;48.22;;;27.38;;
65863;SDS011;52639;51.180;20.460;2022-09-14T04:23:40;39.08;;;20.52;;
65863;SDS011;52639;51.180;20.460;2022-09-14T04:27:44;48.00;;;24.77;;
65863;SDS011;52639;51.180;20.460;2022-09-14T04:31:47;41.45;;;20.48;;
65863;SDS011;52639;51.180;20.460;2022-09-14T04:35:56;39.80;;;18.63;;
65863;SDS011;52639;51.180;20.460;2022-09-14T04:40:01;41.75;;;19.33;;
65863;SDS011;52639;51.180;20.460;2022-09-14T04:44:05;51.17;;;27.80;;
65863;SDS011;52639;51.180;20.460;2022-09-14T04:48:08;50.70;;;25.58;;
65863;SDS011;52639;51.180;20.460;2022-09-14T04:52:10;41.33;;;23.15;;
65863;SDS011;52639;51.180;20.460;2022-09-14T04:56:13;38.17;;;20.55;;
65863;SDS011;52639;51.180;20.460;2022-09-14T05:00:17;29.52;;;16.88;;
65863;SDS011;52639;51.180;20.460;2022-09-14T05:04:20;33.17;;;18.73;;
65863;SDS011;52639;51.180;20.460;2022-09-14T05:08:23;27.00;;;15.13;;
65863;SDS011;52639;51.180;20.460;2022-09-14T05:12:25;22.30;;;13.55;;
65863;SDS011;52639;51.180;20.460;2022-09-14T05:16:32;18.25;;;13.38;;
65863;SDS011;52639;51.180;20.460;2022-09-14T05:20:45;18.83;;;14.02;;
65863;SDS011;52639;51.180;20.460;2022-09-14T05:24:54;17.58;;;11.70;;
65863;SDS011;52639;51.180;20.460;2022-09-14T05:29:03;17.08;;;11.23;;
65863;SDS011;52639;51.180;20.460;2022-09-14T05:33:06;18.13;;;11.23;;
65863;SDS011;52639;51.180;20.460;2022-09-14T05:37:10;17.00;;;11.10;;
65863;SDS011;52639;51.180;20.460;2022-09-14T05:41:14;16.83;;;10.35;;
65863;SDS011;52639;51.180;20.460;2022-09-14T05:45:17;17.15;;;10.25;;
65863;SDS011;52639;51.180;20.460;2022-09-14T05:49:21;14.45;;;10.98;;
65863;SDS011;52639;51.180;20.460;2022-09-14T05:53:25;14.45;;;10.45;;
65863;SDS011;52639;51.180;20.460;2022-09-14T05:57:27;16.40;;;9.85;;
65863;SDS011;52639;51.180;20.460;2022-09-14T06:01:30;15.13;;;9.02;;
65863;SDS011;52639;51.180;20.460;2022-09-14T06:05:34;14.68;;;9.02;;
65863;SDS011;52639;51.180;20.460;2022-09-14T06:09:37;15.75;;;9.32;;
65863;SDS011;52639;51.180;20.460;2022-09-14T06:13:39;15.05;;;9.32;;
65863;SDS011;52639;51.180;20.460;2022-09-14T06:17:42;11.45;;;8.63;;
65863;SDS011;52639;51.180;20.460;2022-09-14T06:21:46;14.80;;;9.48;;
65863;SDS011;52639;51.180;20.460;2022-09-14T06:25:51;12.55;;;8.70;;
65863;SDS011;52639;51.180;20.460;2022-09-14T06:29:53;12.25;;;8.32;;
65863;SDS011;52639;51.180;20.460;2022-09-14T06:33:56;15.95;;;9.27;;
65863;SDS011;52639;51.180;20.460;2022-09-14T06:38:00;14.38;;;9.45;;
65863;SDS011;52639;51.180;20.460;2022-09-14T06:42:03;14.95;;;9.10;;
65863;SDS011;52639;51.180;20.460;2022-09-14T06:46:06;13.35;;;8.13;;
65863;SDS011;52639;51.180;20.460;2022-09-14T06:50:12;9.52;;;7.28;;
65863;SDS011;52639;51.180;20.460;2022-09-14T06:54:16;9.45;;;6.20;;
65863;SDS011;52639;51.180;20.460;2022-09-14T06:58:19;11.32;;;7.15;;
65863;SDS011;52639;51.180;20.460;2022-09-14T07:02:21;10.27;;;6.90;;
65863;SDS011;52639;51.180;20.460;2022-09-14T07:06:25;11.18;;;7.88;;
65863;SDS011;52639;51.180;20.460;2022-09-14T07:10:30;10.63;;;6.82;;
65863;SDS011;52639;51.180;20.460;2022-09-14T07:14:33;10.57;;;7.22;;
65863;SDS011;52639;51.180;20.460;2022-09-14T07:18:36;8.82;;;7.00;;
65863;SDS011;52639;51.180;20.460;2022-09-14T07:22:39;9.45;;;6.28;;
65863;SDS011;52639;51.180;20.460;2022-09-14T07:26:43;10.25;;;6.68;;
65863;SDS011;52639;51.180;20.460;2022-09-14T07:30:46;10.27;;;6.65;;
65863;SDS011;52639;51.180;20.460;2022-09-14T07:34:49;9.77;;;6.97;;
65863;SDS011;52639;51.180;20.460;2022-09-14T07:38:52;8.73;;;6.18;;
65863;SDS011;52639;51.180;20.460;2022-09-14T07:42:56;8.90;;;5.93;;
65863;SDS011;52639;51.180;20.460;2022-09-14T07:46:59;10.30;;;6.00;;
65863;SDS011;52639;51.180;20.460;2022-09-14T07:51:02;8.90;;;5.50;;
65863;SDS011;52639;51.180;20.460;2022-09-14T07:55:07;9.40;;;5.50;;
65863;SDS011;52639;51.180;20.460;2022-09-14T07:59:13;8.57;;;4.75;;
65863;SDS011;52639;51.180;20.460;2022-09-14T08:03:16;7.50;;;5.20;;
65863;SDS011;52639;51.180;20.460;2022-09-14T08:07:19;8.80;;;5.43;;
65863;SDS011;52639;51.180;20.460;2022-09-14T08:11:22;8.50;;;4.75;;
65863;SDS011;52639;51.180;20.460;2022-09-14T08:15:26;7.63;;;4.70;;
65863;SDS011;52639;51.180;20.460;2022-09-14T08:19:31;8.30;;;4.75;;
65863;SDS011;52639;51.180;20.460;2022-09-14T08:23:34;6.55;;;4.05;;
65863;SDS011;52639;51.180;20.460;2022-09-14T08:27:37;8.88;;;3.42;;
65863;SDS011;52639;51.180;20.460;2022-09-14T08:31:41;7.47;;;3.72;;
65863;SDS011;52639;51.180;20.460;2022-09-14T08:35:45;5.80;;;3.60;;
65863;SDS011;52639;51.180;20.460;2022-09-14T08:39:47;5.78;;;3.08;;
65863;SDS011;52639;51.180;20.460;2022-09-14T08:43:51;6.78;;;2.90;;
65863;SDS011;52639;51.180;20.460;2022-09-14T08:47:55;4.93;;;2.40;;
65863;SDS011;52639;51.180;20.460;2022-09-14T08:51:59;9.07;;;2.83;;
65863;SDS011;52639;51.180;20.460;2022-09-14T08:56:08;6.00;;;2.58;;
65863;SDS011;52639;51.180;20.460;2022-09-14T09:00:22;4.85;;;2.45;;
65863;SDS011;52639;51.180;20.460;2022-09-14T09:04:32;4.95;;;2.38;;
65863;SDS011;52639;51.180;20.460;2022-09-14T09:08:45;5.28;;;2.40;;
65863;SDS011;52639;51.180;20.460;2022-09-14T09:12:58;5.88;;;2.10;;
65863;SDS011;52639;51.180;20.460;2022-09-14T09:17:03;4.97;;;2.05;;
65863;SDS011;52639;51.180;20.460;2022-09-14T09:21:13;6.38;;;2.22;;
65863;SDS011;52639;51.180;20.460;2022-09-14T09:25:20;5.30;;;2.40;;
65863;SDS011;52639;51.180;20.460;2022-09-14T09:29:24;4.25;;;2.53;;
65863;SDS011;52639;51.180;20.460;2022-09-14T09:33:27;5.32;;;2.33;;
65863;SDS011;52639;51.180;20.460;2022-09-14T09:37:33;4.82;;;2.30;;
65863;SDS011;52639;51.180;20.460;2022-09-14T09:41:42;5.10;;;2.85;;
65863;SDS011;52639;51.180;20.460;2022-09-14T09:45:49;5.53;;;2.25;;
65863;SDS011;52639;51.180;20.460;2022-09-14T09:49:56;5.63;;;2.20;;
65863;SDS011;52639;51.180;20.460;2022-09-14T09:54:04;2.72;;;2.00;;
65863;SDS011;52639;51.180;20.460;2022-09-14T09:58:28;5.57;;;2.30;;
65863;SDS011;52639;51.180;20.460;2022-09-14T10:02:32;6.03;;;2.50;;
65863;SDS011;52639;51.180;20.460;2022-09-14T10:06:39;10.48;;;2.55;;
65863;SDS011;52639;51.180;20.460;2022-09-14T10:10:45;7.70;;;2.83;;
65863;SDS011;52639;51.180;20.460;2022-09-14T10:14:47;5.57;;;2.83;;
65863;SDS011;52639;51.180;20.460;2022-09-14T10:18:51;4.70;;;2.90;;
65863;SDS011;52639;51.180;20.460;2022-09-14T10:22:55;6.43;;;3.55;;
65863;SDS011;52639;51.180;20.460;2022-09-14T10:26:59;5.43;;;3.20;;
65863;SDS011;52639;51.180;20.460;2022-09-14T10:31:04;6.05;;;3.67;;
65863;SDS011;52639;51.180;20.460;2022-09-14T10:35:14;5.95;;;3.60;;
65863;SDS011;52639;51.180;20.460;2022-09-14T10:39:18;7.78;;;3.67;;
65863;SDS011;52639;51.180;20.460;2022-09-14T10:43:29;6.60;;;4.07;;
65863;SDS011;52639;51.180;20.460;2022-09-14T10:47:50;6.88;;;3.70;;
65863;SDS011;52639;51.180;20.460;2022-09-14T10:52:32;6.03;;;3.90;;
65863;SDS011;52639;51.180;20.460;2022-09-14T10:56:43;6.65;;;3.50;;
65863;SDS011;52639;51.180;20.460;2022-09-14T11:01:00;5.25;;;3.30;;
65863;SDS011;52639;51.180;20.460;2022-09-14T11:05:14;6.78;;;2.88;;
65863;SDS011;52639;51.180;20.460;2022-09-14T11:09:24;7.35;;;2.95;;
65863;SDS011;52639;51.180;20.460;2022-09-14T11:13:32;6.40;;;2.50;;
65863;SDS011;52639;51.180;20.460;2022-09-14T11:17:53;5.30;;;2.63;;
65863;SDS011;52639;51.180;20.460;2022-09-14T11:22:23;8.50;;;2.53;;
65863;SDS011;52639;51.180;20.460;2022-09-14T11:26:35;5.82;;;2.40;;
65863;SDS011;52639;51.180;20.460;2022-09-14T11:30:43;5.10;;;2.38;;
65863;SDS011;52639;51.180;20.460;2022-09-14T11:34:51;7.47;;;2.50;;
65863;SDS011;52639;51.180;20.460;2022-09-14T11:38:59;7.78;;;2.80;;
65863;SDS011;52639;51.180;20.460;2022-09-14T11:43:08;4.95;;;2.30;;
65863;SDS011;52639;51.180;20.460;2022-09-14T11:47:15;6.35;;;2.55;;
65863;SDS011;52639;51.180;20.460;2022-09-14T11:51:21;5.85;;;2.65;;
65863;SDS011;52639;51.180;20.460;2022-09-14T11:55:28;4.88;;;2.28;;
65863;SDS011;52639;51.180;20.460;2022-09-14T11:59:36;7.85;;;2.50;;
65863;SDS011;52639;51.180;20.460;2022-09-14T12:03:52;4.18;;;2.67;;
65863;SDS011;52639;51.180;20.460;2022-09-14T12:12:40;4.25;;;2.47;;
65863;SDS011;52639;51.180;20.460;2022-09-14T12:21:23;4.57;;;2.25;;
65863;SDS011;52639;51.180;20.460;2022-09-14T12:25:28;3.45;;;2.60;;
65863;SDS011;52639;51.180;20.460;2022-09-14T12:29:31;8.98;;;2.50;;
65863;SDS011;52639;51.180;20.460;2022-09-14T12:33:39;5.65;;;2.40;;
65863;SDS011;52639;51.180;20.460;2022-09-14T12:37:43;5.90;;;2.70;;
65863;SDS011;52639;51.180;20.460;2022-09-14T12:42:09;7.95;;;2.80;;
65863;SDS011;52639;51.180;20.460;2022-09-14T12:46:39;5.55;;;2.17;;
65863;SDS011;52639;51.180;20.460;2022-09-14T12:50:42;5.07;;;2.03;;
65863;SDS011;52639;51.180;20.460;2022-09-14T12:55:03;7.03;;;2.10;;
65863;SDS011;52639;51.180;20.460;2022-09-14T12:59:20;7.88;;;2.80;;
65863;SDS011;52639;51.180;20.460;2022-09-14T13:03:49;4.93;;;2.45;;
65863;SDS011;52639;51.180;20.460;2022-09-14T13:08:00;7.25;;;2.67;;
65863;SDS011;52639;51.180;20.460;2022-09-14T13:12:27;5.25;;;2.53;;
65863;SDS011;52639;51.180;20.460;2022-09-14T13:16:48;6.32;;;2.50;;
65863;SDS011;52639;51.180;20.460;2022-09-14T13:20:57;5.22;;;2.65;;
65863;SDS011;52639;51.180;20.460;2022-09-14T13:25:03;7.40;;;3.05;;
65863;SDS011;52639;51.180;20.460;2022-09-14T13:29:11;5.28;;;2.60;;
65863;SDS011;52639;51.180;20.460;2022-09-14T13:33:34;8.55;;;2.85;;
65863;SDS011;52639;51.180;20.460;2022-09-14T13:37:38;7.63;;;2.53;;
65863;SDS011;52639;51.180;20.460;2022-09-14T13:41:46;4.78;;;2.53;;
65863;SDS011;52639;51.180;20.460;2022-09-14T13:45:57;4.00;;;2.60;;
65863;SDS011;52639;51.180;20.460;2022-09-14T13:50:02;4.25;;;2.20;;
65863;SDS011;52639;51.180;20.460;2022-09-14T13:54:17;6.20;;;2.70;;
65863;SDS011;52639;51.180;20.460;2022-09-14T13:58:32;3.20;;;2.17;;
65863;SDS011;52639;51.180;20.460;2022-09-14T14:02:42;6.40;;;2.58;;
65863;SDS011;52639;51.180;20.460;2022-09-14T14:11:31;6.03;;;2.70;;
65863;SDS011;52639;51.180;20.460;2022-09-14T14:15:37;4.53;;;2.25;;
65863;SDS011;52639;51.180;20.460;2022-09-14T14:19:43;5.88;;;2.53;;
65863;SDS011;52639;51.180;20.460;2022-09-14T14:23:49;4.95;;;2.47;;
65863;SDS011;52639;51.180;20.460;2022-09-14T14:27:56;5.85;;;2.42;;
65863;SDS011;52639;51.180;20.460;2022-09-14T14:32:01;4.90;;;2.67;;
65863;SDS011;52639;51.180;20.460;2022-09-14T14:36:04;5.78;;;2.50;;
65863;SDS011;52639;51.180;20.460;2022-09-14T14:40:11;6.13;;;2.88;;
65863;SDS011;52639;51.180;20.460;2022-09-14T14:44:15;5.15;;;2.78;;
65863;SDS011;52639;51.180;20.460;2022-09-14T14:48:20;5.30;;;2.83;;
65863;SDS011;52639;51.180;20.460;2022-09-14T14:52:23;6.05;;;3.47;;
65863;SDS011;52639;51.180;20.460;2022-09-14T14:56:27;7.00;;;3.70;;
65863;SDS011;52639;51.180;20.460;2022-09-14T15:00:31;8.52;;;3.38;;
65863;SDS011;52639;51.180;20.460;2022-09-14T15:04:35;8.88;;;3.30;;
65863;SDS011;52639;51.180;20.460;2022-09-14T15:08:38;5.75;;;2.97;;
65863;SDS011;52639;51.180;20.460;2022-09-14T15:12:43;7.32;;;3.90;;
65863;SDS011;52639;51.180;20.460;2022-09-14T15:16:46;6.25;;;2.83;;
65863;SDS011;52639;51.180;20.460;2022-09-14T15:20:49;6.10;;;2.97;;
65863;SDS011;52639;51.180;20.460;2022-09-14T15:24:53;8.85;;;3.65;;
65863;SDS011;52639;51.180;20.460;2022-09-14T15:28:56;7.32;;;3.60;;
65863;SDS011;52639;51.180;20.460;2022-09-14T15:32:59;6.90;;;3.65;;
65863;SDS011;52639;51.180;20.460;2022-09-14T15:37:02;7.28;;;3.55;;
65863;SDS011;52639;51.180;20.460;2022-09-14T15:41:07;6.18;;;3.38;;
65863;SDS011;52639;51.180;20.460;2022-09-14T15:45:13;11.20;;;3.85;;
65863;SDS011;52639;51.180;20.460;2022-09-14T15:49:17;8.27;;;3.72;;
65863;SDS011;52639;51.180;20.460;2022-09-14T15:53:23;9.38;;;4.70;;
65863;SDS011;52639;51.180;20.460;2022-09-14T15:57:35;7.72;;;4.63;;
65863;SDS011;52639;51.180;20.460;2022-09-14T16:01:45;9.85;;;5.40;;
65863;SDS011;52639;51.180;20.460;2022-09-14T16:05:49;13.27;;;7.10;;
65863;SDS011;52639;51.180;20.460;2022-09-14T16:09:58;10.50;;;6.40;;
65863;SDS011;52639;51.180;20.460;2022-09-14T16:14:01;7.78;;;5.38;;
65863;SDS011;52639;51.180;20.460;2022-09-14T16:18:09;10.18;;;5.60;;
65863;SDS011;52639;51.180;20.460;2022-09-14T16:22:21;9.85;;;6.00;;
65863;SDS011;52639;51.180;20.460;2022-09-14T16:26:25;9.88;;;5.60;;
65863;SDS011;52639;51.180;20.460;2022-09-14T16:30:30;10.18;;;5.05;;
65863;SDS011;52639;51.180;20.460;2022-09-14T16:34:34;8.30;;;5.30;;
65863;SDS011;52639;51.180;20.460;2022-09-14T16:38:38;9.90;;;4.85;;
65863;SDS011;52639;51.180;20.460;2022-09-14T16:42:41;10.15;;;4.60;;
65863;SDS011;52639;51.180;20.460;2022-09-14T16:46:46;11.90;;;4.68;;
65863;SDS011;52639;51.180;20.460;2022-09-14T16:50:52;8.63;;;4.57;;
65863;SDS011;52639;51.180;20.460;2022-09-14T16:54:56;7.95;;;4.70;;
65863;SDS011;52639;51.180;20.460;2022-09-14T16:58:59;8.15;;;4.47;;
65863;SDS011;52639;51.180;20.460;2022-09-14T17:03:03;10.20;;;4.00;;
65863;SDS011;52639;51.180;20.460;2022-09-14T17:07:07;8.38;;;4.78;;
65863;SDS011;52639;51.180;20.460;2022-09-14T17:11:10;7.25;;;4.50;;
65863;SDS011;52639;51.180;20.460;2022-09-14T17:15:14;9.18;;;4.80;;
65863;SDS011;52639;51.180;20.460;2022-09-14T17:19:17;7.57;;;4.72;;
65863;SDS011;52639;51.180;20.460;2022-09-14T17:23:21;8.68;;;5.15;;
65863;SDS011;52639;51.180;20.460;2022-09-14T17:27:24;13.82;;;10.57;;
65863;SDS011;52639;51.180;20.460;2022-09-14T17:31:28;12.25;;;7.70;;
65863;SDS011;52639;51.180;20.460;2022-09-14T17:35:33;19.58;;;13.07;;
65863;SDS011;52639;51.180;20.460;2022-09-14T17:39:36;11.35;;;6.88;;
65863;SDS011;52639;51.180;20.460;2022-09-14T17:43:39;15.43;;;9.07;;
65863;SDS011;52639;51.180;20.460;2022-09-14T17:47:42;15.25;;;9.20;;
65863;SDS011;52639;51.180;20.460;2022-09-14T17:51:45;14.38;;;9.40;;
65863;SDS011;52639;51.180;20.460;2022-09-14T17:55:50;13.02;;;8.48;;
65863;SDS011;52639;51.180;20.460;2022-09-14T17:59:52;14.23;;;9.73;;
65863;SDS011;52639;51.180;20.460;2022-09-14T18:03:55;15.50;;;10.77;;
65863;SDS011;52639;51.180;20.460;2022-09-14T18:07:59;13.35;;;9.90;;
65863;SDS011;52639;51.180;20.460;2022-09-14T18:12:07;13.65;;;6.03;;
65863;SDS011;52639;51.180;20.460;2022-09-14T18:16:11;11.63;;;5.43;;
65863;SDS011;52639;51.180;20.460;2022-09-14T18:20:15;9.80;;;5.57;;
65863;SDS011;52639;51.180;20.460;2022-09-14T18:24:18;9.63;;;6.32;;
65863;SDS011;52639;51.180;20.460;2022-09-14T18:28:23;16.67;;;11.13;;
65863;SDS011;52639;51.180;20.460;2022-09-14T18:32:29;12.23;;;6.60;;
65863;SDS011;52639;51.180;20.460;2022-09-14T18:36:31;11.68;;;8.10;;
65863;SDS011;52639;51.180;20.460;2022-09-14T18:40:36;13.30;;;7.60;;
65863;SDS011;52639;51.180;20.460;2022-09-14T18:44:40;14.00;;;8.50;;
65863;SDS011;52639;51.180;20.460;2022-09-14T18:48:43;13.10;;;8.40;;
65863;SDS011;52639;51.180;20.460;2022-09-14T18:52:47;14.23;;;6.93;;
65863;SDS011;52639;51.180;20.460;2022-09-14T18:56:50;8.95;;;6.13;;
65863;SDS011;52639;51.180;20.460;2022-09-14T19:00:54;8.98;;;5.60;;
65863;SDS011;52639;51.180;20.460;2022-09-14T19:05:05;10.05;;;5.47;;
65863;SDS011;52639;51.180;20.460;2022-09-14T19:09:09;27.90;;;13.88;;
65863;SDS011;52639;51.180;20.460;2022-09-14T19:13:15;37.80;;;24.83;;
65863;SDS011;52639;51.180;20.460;2022-09-14T19:17:20;15.13;;;9.80;;
65863;SDS011;52639;51.180;20.460;2022-09-14T19:21:25;10.60;;;7.32;;
65863;SDS011;52639;51.180;20.460;2022-09-14T19:25:34;10.82;;;6.28;;
65863;SDS011;52639;51.180;20.460;2022-09-14T19:29:38;11.20;;;6.80;;
65863;SDS011;52639;51.180;20.460;2022-09-14T19:33:43;15.57;;;8.07;;
65863;SDS011;52639;51.180;20.460;2022-09-14T19:37:47;12.25;;;7.80;;
65863;SDS011;52639;51.180;20.460;2022-09-14T19:41:50;12.60;;;7.70;;
65863;SDS011;52639;51.180;20.460;2022-09-14T19:45:53;10.82;;;7.57;;
65863;SDS011;52639;51.180;20.460;2022-09-14T19:49:58;12.10;;;8.48;;
65863;SDS011;52639;51.180;20.460;2022-09-14T19:54:01;13.95;;;8.90;;
65863;SDS011;52639;51.180;20.460;2022-09-14T19:58:11;15.65;;;8.40;;
65863;SDS011;52639;51.180;20.460;2022-09-14T20:02:14;11.90;;;7.88;;
65863;SDS011;52639;51.180;20.460;2022-09-14T20:06:22;17.70;;;9.00;;
65863;SDS011;52639;51.180;20.460;2022-09-14T20:10:33;13.82;;;8.25;;
65863;SDS011;52639;51.180;20.460;2022-09-14T20:14:36;15.80;;;8.52;;
65863;SDS011;52639;51.180;20.460;2022-09-14T20:18:39;10.90;;;7.47;;
65863;SDS011;52639;51.180;20.460;2022-09-14T20:22:44;26.85;;;12.40;;
65863;SDS011;52639;51.180;20.460;2022-09-14T20:26:48;10.80;;;7.90;;
65863;SDS011;52639;51.180;20.460;2022-09-14T20:30:56;14.18;;;9.55;;
65863;SDS011;52639;51.180;20.460;2022-09-14T20:34:59;17.52;;;9.85;;
65863;SDS011;52639;51.180;20.460;2022-09-14T20:39:03;12.13;;;8.07;;
65863;SDS011;52639;51.180;20.460;2022-09-14T20:43:06;14.85;;;8.18;;
65863;SDS011;52639;51.180;20.460;2022-09-14T20:47:09;10.43;;;7.57;;
65863;SDS011;52639;51.180;20.460;2022-09-14T20:51:12;11.80;;;7.60;;
65863;SDS011;52639;51.180;20.460;2022-09-14T20:55:17;11.65;;;7.95;;
65863;SDS011;52639;51.180;20.460;2022-09-14T20:59:21;17.25;;;8.20;;
65863;SDS011;52639;51.180;20.460;2022-09-14T21:03:23;15.82;;;8.15;;
65863;SDS011;52639;51.180;20.460;2022-09-14T21:07:26;13.52;;;7.72;;
65863;SDS011;52639;51.180;20.460;2022-09-14T21:11:30;12.43;;;8.43;;
65863;SDS011;52639;51.180;20.460;2022-09-14T21:15:33;14.43;;;8.40;;
65863;SDS011;52639;51.180;20.460;2022-09-14T21:19:35;18.23;;;11.10;;
65863;SDS011;52639;51.180;20.460;2022-09-14T21:23:39;13.45;;;9.70;;
65863;SDS011;52639;51.180;20.460;2022-09-14T21:27:43;15.85;;;9.70;;
65863;SDS011;52639;51.180;20.460;2022-09-14T21:31:46;14.23;;;9.32;;
65863;SDS011;52639;51.180;20.460;2022-09-14T21:35:49;13.60;;;9.68;;
65863;SDS011;52639;51.180;20.460;2022-09-14T21:39:52;13.40;;;9.10;;
65863;SDS011;52639;51.180;20.460;2022-09-14T21:43:56;14.23;;;9.25;;
65863;SDS011;52639;51.180;20.460;2022-09-14T21:47:58;15.10;;;9.32;;
65863;SDS011;52639;51.180;20.460;2022-09-14T21:52:01;13.98;;;9.90;;
65863;SDS011;52639;51.180;20.460;2022-09-14T21:56:04;13.00;;;9.88;;
65863;SDS011;52639;51.180;20.460;2022-09-14T22:00:10;13.68;;;9.43;;
65863;SDS011;52639;51.180;20.460;2022-09-14T22:04:14;18.38;;;10.55;;
65863;SDS011;52639;51.180;20.460;2022-09-14T22:08:18;15.02;;;10.13;;
65863;SDS011;52639;51.180;20.460;2022-09-14T22:12:20;15.98;;;10.07;;
65863;SDS011;52639;51.180;20.460;2022-09-14T22:16:27;21.27;;;13.02;;
65863;SDS011;52639;51.180;20.460;2022-09-14T22:20:33;16.73;;;10.88;;
65863;SDS011;52639;51.180;20.460;2022-09-14T22:24:35;14.77;;;10.98;;
65863;SDS011;52639;51.180;20.460;2022-09-14T22:28:39;15.52;;;9.40;;
65863;SDS011;52639;51.180;20.460;2022-09-14T22:32:43;15.00;;;10.30;;
65863;SDS011;52639;51.180;20.460;2022-09-14T22:36:46;16.92;;;11.02;;
65863;SDS011;52639;51.180;20.460;2022-09-14T22:40:52;15.82;;;10.95;;
65863;SDS011;52639;51.180;20.460;2022-09-14T22:44:56;14.10;;;10.18;;
65863;SDS011;52639;51.180;20.460;2022-09-14T22:49:00;18.58;;;11.57;;
65863;SDS011;52639;51.180;20.460;2022-09-14T22:53:02;16.45;;;11.57;;
65863;SDS011;52639;51.180;20.460;2022-09-14T22:57:05;23.98;;;16.27;;
65863;SDS011;52639;51.180;20.460;2022-09-14T23:01:08;35.88;;;20.52;;
65863;SDS011;52639;51.180;20.460;2022-09-14T23:05:13;43.95;;;22.90;;
65863;SDS011;52639;51.180;20.460;2022-09-14T23:09:17;34.83;;;22.42;;
65863;SDS011;52639;51.180;20.460;2022-09-14T23:13:21;34.47;;;21.67;;
65863;SDS011;52639;51.180;20.460;2022-09-14T23:17:24;39.05;;;23.35;;
65863;SDS011;52639;51.180;20.460;2022-09-14T23:21:28;31.83;;;17.83;;
65863;SDS011;52639;51.180;20.460;2022-09-14T23:25:32;29.10;;;18.23;;
65863;SDS011;52639;51.180;20.460;2022-09-14T23:29:35;28.15;;;19.33;;
65863;SDS011;52639;51.180;20.460;2022-09-14T23:33:38;32.00;;;19.73;;
65863;SDS011;52639;51.180;20.460;2022-09-14T23:37:42;30.63;;;19.58;;
65863;SDS011;52639;51.180;20.460;2022-09-14T23:41:44;33.70;;;21.17;;
65863;SDS011;52639;51.180;20.460;2022-09-14T23:45:47;30.67;;;20.40;;
65863;SDS011;52639;51.180;20.460;2022-09-14T23:49:49;27.88;;;17.65;;
65863;SDS011;52639;51.180;20.460;2022-09-14T23:53:54;33.50;;;21.55;;
65863;SDS011;52639;51.180;20.460;2022-09-14T23:57:56;33.70;;;21.60;;
